Alt de Berwind, Puerto Rico
Current Conditions -  °F | °C
As of 4:56 PM on Sunday 23 Nov 2014 (Local Time) from TJSJ Reporting Station
Scattered Clouds Scattered Clouds  
Wind Chill: 29°   Ceiling: Unl
Heat Index: 32°   Visibility: 10mi
Dew Point: 22°   Wind: 15mph
Humidity: 67%   Direction: 90°E
Pressure: 29.96"   Gusts: NA
Location:  18.4051°N, 66.0126°W
Report Text: TJSJ 232056Z 09013KT 10SM FEW018 SCT070 29/22 A2996 RMK AO2 SLP145 T02890222 56005 $
Loading
Personal Weather Stations






























Interactive Weather Map New forecast layout! Learn more

10-Day Weather Forecast

Advertisements
Track Severe Weather on mobile